Lafayette, IN

4:33 AM EDT on September 29, 2016 (GMT -0400)
INDOT | | Change Station

Elev 643 ft 40.36 °N, 86.75 °W | Updated 1 hour ago

Overcast
Overcast
55.0 °F
Feels Like 55.0 °F
N
6.0
Wind Variable Wind from NNE
Gusts 11.0 mph

Today
High -- | Low -- °F
--% Chance of Precip.
Yesterday
High -- | Low -- °F
Precip. -- in
Pressure 29.99 in
Visibility 10.0 miles
Clouds Scattered Clouds 900 ft
Scattered Clouds 1500 ft
Overcast 4100 ft
Dew Point 54.0 °F
Humidity 95%
Rainfall in
Snow Depth Not available.
7:41 AM 7:31 PM
Waning Crescent, 3% visible
METAR KGGP 290815Z AUTO 35004KT 10SM SCT009 SCT015 OVC041 11/11 A2999 RMK AO2
Pressure 29.99 in
Visibility 10.0 miles
Clouds Scattered Clouds 900 ft
Scattered Clouds 1500 ft
Overcast 4100 ft
Dew Point 54.0 °F
Humidity 95%
Rainfall in
Snow Depth Not available.
7:41 AM 7:31 PM
Waning Crescent, 3% visible
METAR KGGP 290815Z AUTO 35004KT 10SM SCT009 SCT015 OVC041 11/11 A2999 RMK AO2

10-Day Weather Forecast

Almanac

Astronomy

Sep. 29, 2016 Rise Set
Actual Time
Civil Twilight
Nautical Twilight
Astronomical Twilight
Moon
Length of Visible Light
Length of Day
Tomorrow will be .
, % of the Moon is Illuminated

Today's Extremes

State Highs State Lows

Community

WunderPhotos

Upload Photos

1,942,446 photos uploaded!

WunderBlog® & News

Nearby

Air Quality

  Air Quality AQ Index Pollutant
Not available.

Snow Depth

Station Depth Elevation

Earthquake Activity

City Distance Mag. Time & Date
Minimum magnitude displayed is 2.5.

Coastal Water Temperatures

Place Temperature

Stations

Nearby Weather Stations

Station Location Temp. Windchill Dew Point Humidity Wind Precip. Elev Updated Type
                   

Watches & Warnings

There are currently no watches in effect.